createdAt,value
2022-10-30T00:01:37.544Z,99077.16
2022-10-30T00:04:04.487Z,99077.53
2022-10-30T00:06:31.104Z,99084.53
2022-10-30T00:08:57.716Z,99072.94
2022-10-30T00:11:24.391Z,99068.66
2022-10-30T00:13:51.035Z,99072.69
2022-10-30T00:16:18.233Z,99066.59
2022-10-30T00:18:44.913Z,99067.81
2022-10-30T00:21:14.288Z,99072.28
2022-10-30T00:23:56.058Z,99074.34
2022-10-30T00:26:23.935Z,99073.97
2022-10-30T00:28:53.000Z,99073.16
2022-10-30T00:31:20.083Z,99069.50
2022-10-30T00:33:51.535Z,99067.44
2022-10-30T00:36:18.729Z,99076.41
2022-10-30T00:38:45.496Z,99072.94
2022-10-30T00:41:18.163Z,99069.84
2022-10-30T00:43:45.251Z,99062.75
2022-10-30T00:46:25.696Z,99065.78
2022-10-30T00:48:58.081Z,99059.50
2022-10-30T00:51:28.021Z,99051.78
2022-10-30T00:53:57.919Z,99050.19
2022-10-30T00:56:24.797Z,99046.47
2022-10-30T00:58:57.331Z,99047.88
2022-10-30T01:01:26.894Z,99041.59
2022-10-30T01:03:57.593Z,99048.88
2022-10-30T01:06:25.126Z,99049.72
2022-10-30T01:08:57.029Z,99039.16
2022-10-30T01:11:26.685Z,99041.16
2022-10-30T01:13:55.336Z,99036.09
2022-10-30T01:16:46.179Z,99032.44
2022-10-30T01:19:14.836Z,99042.78
2022-10-30T01:21:57.144Z,99037.25
2022-10-30T01:24:34.035Z,99040.50
2022-10-30T01:27:23.816Z,99030.81
2022-10-30T01:29:56.313Z,99041.41
2022-10-30T01:32:54.836Z,99031.22
2022-10-30T01:35:28.474Z,99034.44
2022-10-30T01:38:03.566Z,99037.72
2022-10-30T01:40:30.293Z,99034.84
2022-10-30T01:42:58.528Z,99039.53
2022-10-30T01:45:46.178Z,99043.81
2022-10-30T01:48:27.383Z,99036.88
2022-10-30T01:51:03.026Z,99037.09
2022-10-30T01:53:45.111Z,99036.06
2022-10-30T01:56:18.827Z,99040.13
2022-10-30T01:58:55.031Z,99041.13
2022-10-30T02:01:23.843Z,99036.88
2022-10-30T02:03:51.590Z,99029.94
2022-10-30T02:06:18.369Z,99023.22
2022-10-30T02:08:45.007Z,99020.00
2022-10-30T02:11:12.321Z,99024.09
2022-10-30T02:13:39.137Z,99014.13
2022-10-30T02:16:06.554Z,99017.63
2022-10-30T02:18:33.427Z,99017.22
2022-10-30T02:21:00.298Z,99010.69
2022-10-30T02:23:26.967Z,99010.88
2022-10-30T02:25:53.663Z,99012.53
2022-10-30T02:28:20.312Z,99012.31
2022-10-30T02:30:46.962Z,99009.44
2022-10-30T02:33:13.699Z,99014.31
2022-10-30T02:35:40.470Z,99009.03
2022-10-30T02:38:07.132Z,99005.41
2022-10-30T02:40:33.787Z,99011.69
2022-10-30T02:43:00.442Z,99008.84
2022-10-30T02:45:27.087Z,99001.13
2022-10-30T02:47:53.786Z,99009.03
2022-10-30T02:50:20.438Z,98995.84
2022-10-30T02:52:47.071Z,99003.72
2022-10-30T02:55:13.699Z,99005.38
2022-10-30T02:57:40.298Z,99009.19
2022-10-30T03:00:07.580Z,99008.41
2022-10-30T03:02:34.242Z,99015.50
2022-10-30T03:05:04.569Z,99012.63
2022-10-30T03:07:31.247Z,99014.91
2022-10-30T03:09:57.875Z,99011.81
2022-10-30T03:12:24.611Z,99012.63
2022-10-30T03:14:54.544Z,99006.56
2022-10-30T03:17:21.181Z,99006.16
2022-10-30T03:19:47.821Z,99014.06
2022-10-30T03:22:14.438Z,99010.22
2022-10-30T03:24:41.091Z,99007.38
2022-10-30T03:27:07.731Z,99013.28
2022-10-30T03:29:34.358Z,99014.53
2022-10-30T03:32:00.996Z,99008.81
2022-10-30T03:34:27.853Z,99013.72
2022-10-30T03:36:54.953Z,99017.94
2022-10-30T03:39:21.583Z,99006.78
2022-10-30T03:41:48.325Z,99009.00
2022-10-30T03:44:14.996Z,99007.34
2022-10-30T03:46:41.642Z,99009.59
2022-10-30T03:49:08.281Z,99011.03
2022-10-30T03:51:34.930Z,99011.03
2022-10-30T03:54:01.549Z,99008.38
2022-10-30T03:56:28.231Z,99014.66
2022-10-30T03:58:54.890Z,99011.03
2022-10-30T04:01:21.647Z,99007.34
2022-10-30T04:03:48.408Z,98999.06
2022-10-30T04:06:15.035Z,99002.31
2022-10-30T04:08:41.701Z,98999.88
2022-10-30T04:11:11.181Z,99000.09
2022-10-30T04:13:37.911Z,98999.06
2022-10-30T04:16:06.562Z,99002.91
2022-10-30T04:18:33.194Z,99001.06
2022-10-30T04:21:00.868Z,99001.50
2022-10-30T04:23:27.743Z,99003.13
2022-10-30T04:25:54.532Z,98998.22
2022-10-30T04:28:21.672Z,99002.91
2022-10-30T04:30:48.422Z,98999.06
2022-10-30T04:33:15.531Z,98997.03
2022-10-30T04:35:43.071Z,98990.53
2022-10-30T04:38:12.666Z,99004.38
2022-10-30T04:40:41.457Z,98995.44
2022-10-30T04:43:09.221Z,98996.66
2022-10-30T04:45:37.052Z,98996.25
2022-10-30T04:48:12.574Z,99004.75
2022-10-30T04:50:39.498Z,99003.94
2022-10-30T04:53:10.430Z,98997.44
2022-10-30T04:55:37.079Z,98999.47
2022-10-30T04:58:05.194Z,99001.94
2022-10-30T05:00:32.217Z,99004.09
2022-10-30T05:03:00.964Z,99004.47
2022-10-30T05:05:29.994Z,98999.19
2022-10-30T05:07:57.258Z,98996.41
2022-10-30T05:10:24.301Z,98996.19
2022-10-30T05:12:53.502Z,98995.56
2022-10-30T05:15:20.373Z,98993.34
2022-10-30T05:17:51.731Z,98992.91
2022-10-30T05:20:19.096Z,98987.88
2022-10-30T05:22:46.153Z,98992.16
2022-10-30T05:25:12.870Z,98984.81
2022-10-30T05:27:39.531Z,98983.59
2022-10-30T05:30:06.731Z,98988.50
2022-10-30T05:32:33.757Z,98979.97
2022-10-30T05:35:00.392Z,98983.25
2022-10-30T05:37:27.275Z,98991.56
2022-10-30T05:39:53.877Z,98993.41
2022-10-30T05:42:20.617Z,98991.38
2022-10-30T05:45:00.232Z,98998.25
2022-10-30T05:47:27.933Z,99001.72
2022-10-30T05:49:54.601Z,98994.59
2022-10-30T05:52:21.317Z,98999.28
2022-10-30T05:54:49.695Z,98997.63
2022-10-30T05:57:16.368Z,98995.84
2022-10-30T05:59:44.007Z,98989.09
2022-10-30T06:02:10.683Z,98990.69
2022-10-30T06:04:37.469Z,98990.63
2022-10-30T06:07:04.210Z,98989.63
2022-10-30T06:09:30.791Z,98985.66
2022-10-30T06:11:58.592Z,98991.56
2022-10-30T06:14:25.243Z,98989.34
2022-10-30T06:16:51.918Z,98992.38
2022-10-30T06:19:19.209Z,99000.50
2022-10-30T06:21:46.806Z,98999.69
2022-10-30T06:24:14.353Z,98990.78
2022-10-30T06:26:42.272Z,99002.94
2022-10-30T06:29:08.969Z,99000.13
2022-10-30T06:31:35.585Z,98997.44
2022-10-30T06:34:02.253Z,98999.47
2022-10-30T06:36:29.013Z,98998.47
2022-10-30T06:38:55.709Z,98997.25
2022-10-30T06:41:29.080Z,99001.38
2022-10-30T06:43:56.897Z,99003.41
2022-10-30T06:46:26.931Z,99004.25
2022-10-30T06:48:57.391Z,99002.84
2022-10-30T06:51:24.052Z,99005.47
2022-10-30T06:53:50.710Z,99008.13
2022-10-30T06:56:17.287Z,99003.44
2022-10-30T06:58:43.985Z,99009.56
2022-10-30T07:01:10.698Z,99009.97
2022-10-30T07:03:37.429Z,99018.72
2022-10-30T07:06:07.678Z,99017.31
2022-10-30T07:08:34.325Z,99027.44
2022-10-30T07:11:00.965Z,99028.88
2022-10-30T07:13:27.556Z,99022.78
2022-10-30T07:15:57.466Z,99030.50
2022-10-30T07:18:24.088Z,99023.81
2022-10-30T07:20:55.443Z,99021.19
2022-10-30T07:23:22.318Z,99018.53
2022-10-30T07:25:49.026Z,99020.19
2022-10-30T07:28:15.705Z,99022.19
2022-10-30T07:30:42.380Z,99022.22
2022-10-30T07:33:10.182Z,99021.22
2022-10-30T07:35:36.995Z,99016.75
2022-10-30T07:38:06.730Z,99016.97
2022-10-30T07:40:34.540Z,99011.09
2022-10-30T07:43:03.390Z,99013.97
2022-10-30T07:45:31.075Z,99016.59
2022-10-30T07:47:58.228Z,99014.31
2022-10-30T07:50:25.127Z,99017.16
2022-10-30T07:52:51.845Z,99017.78
2022-10-30T07:55:18.733Z,99019.00
2022-10-30T07:57:45.382Z,99009.25
2022-10-30T08:00:14.005Z,99013.94
2022-10-30T08:02:41.098Z,99016.78
2022-10-30T08:05:09.191Z,99023.09
2022-10-30T08:07:37.927Z,99019.63
2022-10-30T08:10:05.904Z,99021.47
2022-10-30T08:12:34.302Z,99020.47
2022-10-30T08:15:01.172Z,99016.66
2022-10-30T08:17:28.397Z,99018.22
2022-10-30T08:19:55.519Z,99021.13
2022-10-30T08:22:22.185Z,99017.66
2022-10-30T08:24:48.901Z,99014.63
2022-10-30T08:27:15.639Z,99014.59
2022-10-30T08:29:42.339Z,99009.53
2022-10-30T08:32:09.970Z,99013.41
2022-10-30T08:34:36.631Z,99014.06
2022-10-30T08:37:03.331Z,99012.19
2022-10-30T08:39:30.007Z,99011.78
2022-10-30T08:41:59.821Z,99012.63
2022-10-30T08:44:26.988Z,99011.63
2022-10-30T08:46:53.648Z,99017.13
2022-10-30T08:49:20.395Z,99009.38
2022-10-30T08:51:47.179Z,99006.56
2022-10-30T08:54:13.792Z,99002.72
2022-10-30T08:56:40.418Z,99004.16
2022-10-30T08:59:07.103Z,98999.50
2022-10-30T09:01:33.854Z,99001.56
2022-10-30T09:04:00.552Z,99003.38
2022-10-30T09:06:27.198Z,99004.22
2022-10-30T09:08:53.855Z,99002.16
2022-10-30T09:11:20.505Z,99005.41
2022-10-30T09:13:49.336Z,99005.63
2022-10-30T09:16:15.982Z,98996.25
2022-10-30T09:18:42.698Z,99003.78
2022-10-30T09:21:09.381Z,98998.09
2022-10-30T09:23:36.055Z,98994.41
2022-10-30T09:26:02.793Z,98994.59
2022-10-30T09:28:29.464Z,98989.50
2022-10-30T09:31:01.541Z,98989.72
2022-10-30T09:33:28.391Z,98993.34
2022-10-30T09:35:55.006Z,98989.06
2022-10-30T09:38:21.664Z,98989.41
2022-10-30T09:41:05.312Z,98983.78
2022-10-30T09:43:52.095Z,98979.91
2022-10-30T09:46:20.114Z,98984.97
2022-10-30T09:49:11.945Z,98982.63
2022-10-30T09:52:13.705Z,98979.38
2022-10-30T09:54:56.806Z,98976.75
2022-10-30T09:57:32.580Z,98971.75
2022-10-30T10:00:03.847Z,98975.06
2022-10-30T10:02:35.632Z,98973.34
2022-10-30T10:05:14.516Z,98975.63
2022-10-30T10:07:46.827Z,98967.38
2022-10-30T10:10:22.410Z,98962.47
2022-10-30T10:12:55.743Z,98969.84
2022-10-30T10:15:48.779Z,98965.03
2022-10-30T10:18:25.720Z,98959.44
2022-10-30T10:20:57.649Z,98956.88
2022-10-30T10:23:35.778Z,98950.19
2022-10-30T10:26:14.839Z,98952.19
2022-10-30T10:28:59.695Z,98952.63
2022-10-30T10:31:43.355Z,98943.00
2022-10-30T10:34:20.993Z,98938.25
2022-10-30T10:37:06.032Z,98941.31
2022-10-30T10:40:03.160Z,98938.38
2022-10-30T10:42:46.206Z,98936.53
2022-10-30T10:45:12.840Z,98939.75
2022-10-30T10:48:10.092Z,98936.44
2022-10-30T10:50:47.137Z,98921.31
2022-10-30T10:53:44.355Z,98930.47
2022-10-30T10:56:11.295Z,98921.09
2022-10-30T10:58:51.695Z,98916.00
2022-10-30T11:01:23.678Z,98906.41
2022-10-30T11:03:57.835Z,98903.81
2022-10-30T11:06:27.907Z,98900.66
2022-10-30T11:09:12.793Z,98907.69
2022-10-30T11:11:39.456Z,98901.19
2022-10-30T11:14:15.711Z,98895.00
2022-10-30T11:17:00.721Z,98893.44
2022-10-30T11:19:30.330Z,98895.16
2022-10-30T11:21:58.330Z,98891.00
2022-10-30T11:24:31.206Z,98893.75
2022-10-30T11:27:15.503Z,98896.38
2022-10-30T11:29:49.431Z,98892.78
2022-10-30T11:32:22.639Z,98887.81
2022-10-30T11:35:13.498Z,98885.16
2022-10-30T11:37:43.045Z,98879.13
2022-10-30T11:40:20.398Z,98880.84
2022-10-30T11:42:59.617Z,98874.69
2022-10-30T11:45:39.926Z,98869.22
2022-10-30T11:48:19.906Z,98865.34
2022-10-30T11:50:49.306Z,98863.59
2022-10-30T11:53:23.016Z,98870.25
2022-10-30T11:55:50.847Z,98867.69
2022-10-30T11:58:35.766Z,98868.25
2022-10-30T12:01:12.236Z,98862.38
2022-10-30T12:03:40.925Z,98860.78
2022-10-30T12:06:09.355Z,98861.41
2022-10-30T12:08:36.080Z,98855.56
2022-10-30T12:11:05.492Z,98857.28
2022-10-30T12:13:39.184Z,98854.59
2022-10-30T12:16:14.682Z,98846.59
2022-10-30T12:18:42.932Z,98842.97
2022-10-30T12:21:10.263Z,98844.31
2022-10-30T12:23:38.140Z,98840.31
2022-10-30T12:26:11.032Z,98833.41
2022-10-30T12:28:39.268Z,98831.22
2022-10-30T12:31:19.518Z,98830.72
2022-10-30T12:33:58.566Z,98829.66
2022-10-30T12:36:31.032Z,98834.78
2022-10-30T12:39:03.679Z,98823.31
2022-10-30T12:41:51.230Z,98824.66
2022-10-30T12:44:26.995Z,98828.41
2022-10-30T12:47:01.306Z,98826.28
2022-10-30T12:49:34.139Z,98825.72
2022-10-30T12:52:07.546Z,98820.09
2022-10-30T12:54:42.736Z,98817.41
2022-10-30T12:57:22.673Z,98822.00
2022-10-30T13:00:10.006Z,98809.94
2022-10-30T13:03:07.104Z,98809.97
2022-10-30T13:05:40.288Z,98808.91
2022-10-30T13:08:22.339Z,98808.38
2022-10-30T13:10:54.869Z,98806.75
2022-10-30T13:13:29.142Z,98797.91
2022-10-30T13:15:58.672Z,98798.69
2022-10-30T13:18:27.240Z,98796.00
2022-10-30T13:21:08.495Z,98796.25
2022-10-30T13:23:46.410Z,98801.91
2022-10-30T13:26:28.896Z,98796.25
2022-10-30T13:29:12.020Z,98793.03
2022-10-30T13:32:09.137Z,98789.53
2022-10-30T13:34:51.204Z,98780.91
2022-10-30T13:37:27.520Z,98779.84
2022-10-30T13:40:24.748Z,98785.44
2022-10-30T13:43:26.661Z,98789.75
2022-10-30T13:46:17.935Z,98781.69
2022-10-30T13:49:10.161Z,98785.41
2022-10-30T13:51:53.157Z,98783.50
2022-10-30T13:54:38.789Z,98773.38
2022-10-30T13:57:23.821Z,98784.16
2022-10-30T14:00:11.504Z,98777.75
2022-10-30T14:02:53.545Z,98775.59
2022-10-30T14:05:33.784Z,98779.88
2022-10-30T14:08:15.670Z,98783.63
2022-10-30T14:10:42.268Z,98777.41
2022-10-30T14:13:26.963Z,98783.59
2022-10-30T14:15:55.395Z,98776.91
2022-10-30T14:18:25.712Z,98781.19
2022-10-30T14:20:54.412Z,98784.38
2022-10-30T14:23:22.845Z,98776.81
2022-10-30T14:26:05.902Z,98776.03
2022-10-30T14:28:38.838Z,98777.09
2022-10-30T14:31:10.297Z,98784.88
2022-10-30T14:33:46.313Z,98774.44
2022-10-30T14:36:28.351Z,98782.56
2022-10-30T14:39:00.392Z,98775.34
2022-10-30T14:41:44.915Z,98776.97
2022-10-30T14:44:22.844Z,98773.75
2022-10-30T14:47:00.818Z,98780.72
2022-10-30T14:49:46.559Z,98783.69
2022-10-30T14:52:28.453Z,98778.31
2022-10-30T14:55:00.049Z,98782.59
2022-10-30T14:57:48.247Z,98779.34
2022-10-30T15:00:35.121Z,98776.38
2022-10-30T15:03:15.540Z,98778.19
2022-10-30T15:06:17.193Z,98773.84
2022-10-30T15:08:57.982Z,98768.66
2022-10-30T15:11:39.916Z,98773.91
2022-10-30T15:14:20.972Z,98769.03
2022-10-30T15:16:51.472Z,98775.41
2022-10-30T15:19:24.118Z,98772.94
2022-10-30T15:21:54.019Z,98770.69
2022-10-30T15:24:29.569Z,98765.78
2022-10-30T15:27:01.038Z,98768.97
2022-10-30T15:29:30.543Z,98767.78
2022-10-30T15:32:00.981Z,98767.69
2022-10-30T15:34:29.600Z,98767.84
2022-10-30T15:36:56.623Z,98766.94
2022-10-30T15:39:23.722Z,98771.13
2022-10-30T15:41:54.087Z,98768.34
2022-10-30T15:44:26.897Z,98767.75
2022-10-30T15:46:55.677Z,98773.22
2022-10-30T15:49:30.150Z,98767.50
2022-10-30T15:51:57.193Z,98769.06
2022-10-30T15:54:25.910Z,98772.50
2022-10-30T15:57:31.739Z,98769.72
2022-10-30T15:59:51.609Z,98764.09
2022-10-30T16:02:22.332Z,98772.44
2022-10-30T16:04:50.056Z,98767.19
2022-10-30T16:07:22.267Z,98766.59
2022-10-30T16:10:01.405Z,98765.88
2022-10-30T16:12:30.847Z,98774.84
2022-10-30T16:15:01.416Z,98773.16
2022-10-30T16:17:28.492Z,98768.56
2022-10-30T16:20:01.014Z,98777.19
2022-10-30T16:22:34.442Z,98778.41
2022-10-30T16:25:01.647Z,98777.81
2022-10-30T16:27:28.321Z,98779.59
2022-10-30T16:29:59.515Z,98774.41
2022-10-30T16:32:33.429Z,98789.53
2022-10-30T16:35:03.154Z,98792.56
2022-10-30T16:37:36.621Z,98779.81
2022-10-30T16:40:12.283Z,98787.72
2022-10-30T16:42:39.264Z,98789.47
2022-10-30T16:45:45.719Z,98791.56
2022-10-30T16:48:19.526Z,98794.59
2022-10-30T16:50:47.195Z,98805.59
2022-10-30T16:53:29.756Z,98796.84
2022-10-30T16:55:58.173Z,98803.91
2022-10-30T16:58:28.263Z,98796.53
2022-10-30T17:01:02.708Z,98795.72
2022-10-30T17:03:39.579Z,98800.59
2022-10-30T17:06:31.342Z,98796.91
2022-10-30T17:09:01.375Z,98795.66
2022-10-30T17:11:46.319Z,98795.84
2022-10-30T17:14:19.758Z,98801.66
2022-10-30T17:16:57.566Z,98801.63
2022-10-30T17:19:39.326Z,98802.13
2022-10-30T17:22:12.811Z,98798.88
2022-10-30T17:24:39.606Z,98799.91
2022-10-30T17:27:23.266Z,98804.41
2022-10-30T17:29:49.855Z,98807.56
2022-10-30T17:32:21.953Z,98814.69
2022-10-30T17:35:00.099Z,98814.00
2022-10-30T17:37:27.248Z,98811.69
2022-10-30T17:39:53.906Z,98816.88
2022-10-30T17:42:20.719Z,98821.00
2022-10-30T17:44:47.806Z,98821.00
2022-10-30T17:47:17.578Z,98818.44
2022-10-30T17:49:45.081Z,98820.25
2022-10-30T17:52:14.677Z,98818.84
2022-10-30T17:54:42.100Z,98825.44
2022-10-30T17:57:11.751Z,98823.59
2022-10-30T17:59:39.281Z,98824.59
2022-10-30T18:02:16.045Z,98824.06
2022-10-30T18:04:43.606Z,98824.03
2022-10-30T18:07:13.074Z,98818.34
2022-10-30T18:09:40.211Z,98826.16
2022-10-30T18:12:12.307Z,98824.84
2022-10-30T18:14:38.920Z,98824.00
2022-10-30T18:17:05.874Z,98823.53
2022-10-30T18:19:32.534Z,98826.19
2022-10-30T18:21:59.233Z,98826.19
2022-10-30T18:24:25.868Z,98829.09
2022-10-30T18:26:53.967Z,98829.09
2022-10-30T18:29:21.094Z,98825.03
2022-10-30T18:31:47.856Z,98828.88
2022-10-30T18:34:18.267Z,98823.94
2022-10-30T18:36:45.032Z,98820.31
2022-10-30T18:39:13.010Z,98824.03
2022-10-30T18:41:42.980Z,98825.28
2022-10-30T18:44:18.286Z,98825.50
2022-10-30T18:46:45.811Z,98818.03
2022-10-30T18:49:12.910Z,98822.88
2022-10-30T18:51:40.247Z,98825.53
2022-10-30T18:54:14.064Z,98824.22
2022-10-30T18:56:40.906Z,98815.22
2022-10-30T18:59:07.505Z,98822.25
2022-10-30T19:01:35.154Z,98819.28
2022-10-30T19:04:03.761Z,98827.25
2022-10-30T19:06:32.859Z,98820.53
2022-10-30T19:09:02.820Z,98815.81
2022-10-30T19:11:31.784Z,98818.25
2022-10-30T19:13:59.199Z,98825.25
2022-10-30T19:16:25.874Z,98823.19
2022-10-30T19:18:53.038Z,98822.84
2022-10-30T19:21:26.091Z,98823.69
2022-10-30T19:23:54.509Z,98821.13
2022-10-30T19:26:21.181Z,98830.47
2022-10-30T19:28:47.821Z,98829.88
2022-10-30T19:31:17.372Z,98826.41
2022-10-30T19:33:44.728Z,98829.88
2022-10-30T19:36:36.181Z,98831.50
2022-10-30T19:39:09.118Z,98833.19
2022-10-30T19:41:36.912Z,98828.38
2022-10-30T19:44:04.277Z,98824.47
2022-10-30T19:46:31.035Z,98820.41
2022-10-30T19:48:58.945Z,98831.44
2022-10-30T19:51:27.942Z,98835.09
2022-10-30T19:53:54.642Z,98832.66
2022-10-30T19:56:21.527Z,98838.78
2022-10-30T19:58:48.587Z,98838.69
2022-10-30T20:01:16.048Z,98836.63
2022-10-30T20:03:42.930Z,98845.66
2022-10-30T20:06:12.441Z,98839.16
2022-10-30T20:08:39.269Z,98844.72
2022-10-30T20:11:05.952Z,98839.66
2022-10-30T20:13:33.557Z,98839.94
2022-10-30T20:16:05.354Z,98846.66
2022-10-30T20:18:35.085Z,98851.41
2022-10-30T20:21:08.263Z,98851.22
2022-10-30T20:23:35.783Z,98857.16
2022-10-30T20:26:06.569Z,98860.72
2022-10-30T20:28:36.511Z,98858.88
2022-10-30T20:31:05.358Z,98860.16
2022-10-30T20:33:32.125Z,98862.19
2022-10-30T20:35:58.791Z,98857.22
2022-10-30T20:38:29.366Z,98861.34
2022-10-30T20:40:57.976Z,98862.75
2022-10-30T20:43:29.402Z,98859.09
2022-10-30T20:45:58.291Z,98865.19
2022-10-30T20:48:26.219Z,98868.94
2022-10-30T20:50:54.607Z,98873.88
2022-10-30T20:53:21.234Z,98873.25
2022-10-30T20:55:48.145Z,98878.78
2022-10-30T20:58:14.802Z,98873.66
2022-10-30T21:00:41.665Z,98877.53
2022-10-30T21:03:11.255Z,98872.00
2022-10-30T21:05:43.839Z,98873.41
2022-10-30T21:08:11.059Z,98876.69
2022-10-30T21:10:38.885Z,98873.22
2022-10-30T21:13:08.791Z,98876.53
2022-10-30T21:15:39.477Z,98882.88
2022-10-30T21:18:06.690Z,98891.63
2022-10-30T21:20:33.429Z,98887.38
2022-10-30T21:23:00.616Z,98888.22
2022-10-30T21:25:27.362Z,98888.19
2022-10-30T21:27:56.560Z,98882.50
2022-10-30T21:30:23.377Z,98881.28
2022-10-30T21:32:50.496Z,98880.84
2022-10-30T21:35:17.537Z,98889.19
2022-10-30T21:37:44.145Z,98890.19
2022-10-30T21:40:11.401Z,98886.34
2022-10-30T21:42:38.060Z,98889.81
2022-10-30T21:45:06.040Z,98891.63
2022-10-30T21:47:32.649Z,98887.34
2022-10-30T21:49:59.296Z,98886.38
2022-10-30T21:52:25.916Z,98897.78
2022-10-30T21:54:52.560Z,98891.69
2022-10-30T21:57:19.413Z,98892.72
2022-10-30T21:59:46.063Z,98887.22
2022-10-30T22:02:15.173Z,98889.28
2022-10-30T22:04:42.014Z,98888.06
2022-10-30T22:07:08.868Z,98886.63
2022-10-30T22:09:35.903Z,98891.50
2022-10-30T22:12:02.555Z,98891.91
2022-10-30T22:14:29.463Z,98896.38
2022-10-30T22:16:56.290Z,98894.75
2022-10-30T22:19:22.991Z,98894.13
2022-10-30T22:21:49.630Z,98896.78
2022-10-30T22:24:17.348Z,98890.69
2022-10-30T22:26:46.571Z,98900.41
2022-10-30T22:29:13.357Z,98898.19
2022-10-30T22:31:40.066Z,98902.88
2022-10-30T22:34:06.672Z,98913.03
2022-10-30T22:36:33.618Z,98911.38
2022-10-30T22:39:02.735Z,98910.78
2022-10-30T22:41:34.453Z,98909.13
2022-10-30T22:44:08.028Z,98916.44
2022-10-30T22:46:36.289Z,98914.41
2022-10-30T22:49:03.293Z,98918.03
2022-10-30T22:51:33.393Z,98915.19
2022-10-30T22:54:02.081Z,98910.97
2022-10-30T22:56:32.184Z,98924.38
2022-10-30T22:59:02.389Z,98925.13
2022-10-30T23:01:31.626Z,98919.03
2022-10-30T23:04:00.656Z,98924.72
2022-10-30T23:06:29.037Z,98921.25
2022-10-30T23:08:58.257Z,98916.81
2022-10-30T23:11:29.438Z,98923.13
2022-10-30T23:13:56.801Z,98925.97
2022-10-30T23:16:25.370Z,98920.91
2022-10-30T23:18:54.605Z,98913.97
2022-10-30T23:21:23.332Z,98919.28
2022-10-30T23:23:53.238Z,98916.22
2022-10-30T23:26:24.294Z,98914.16
2022-10-30T23:28:53.318Z,98916.38
2022-10-30T23:31:22.912Z,98916.22
2022-10-30T23:33:51.072Z,98925.19
2022-10-30T23:36:18.441Z,98912.97
2022-10-30T23:38:45.583Z,98918.69
2022-10-30T23:41:12.207Z,98919.69
2022-10-30T23:43:38.870Z,98916.63
2022-10-30T23:46:05.703Z,98919.06
2022-10-30T23:48:32.437Z,98917.25
2022-10-30T23:50:59.092Z,98913.16
2022-10-30T23:53:25.733Z,98916.38
2022-10-30T23:55:54.050Z,98917.03
2022-10-30T23:58:21.327Z,98912.13
